sensor_id;sensor_type;location;lat;lon;timestamp;pressure;altitude;pressure_sealevel;temperature;humidity
11395;BME280;5753;54.402;10.220;2023-04-06T00:02:19;102076.34;;;13.73;36.52
11395;BME280;5753;54.402;10.220;2023-04-06T00:04:45;102081.06;;;13.91;35.90
11395;BME280;5753;54.402;10.220;2023-04-06T00:07:12;102077.03;;;14.05;35.87
11395;BME280;5753;54.402;10.220;2023-04-06T00:09:38;102080.66;;;14.13;35.81
11395;BME280;5753;54.402;10.220;2023-04-06T00:12:04;102068.53;;;14.12;35.74
11395;BME280;5753;54.402;10.220;2023-04-06T00:14:30;102074.31;;;14.39;34.89
11395;BME280;5753;54.402;10.220;2023-04-06T00:16:57;102071.25;;;14.18;35.41
11395;BME280;5753;54.402;10.220;2023-04-06T00:19:23;102063.41;;;14.13;35.34
11395;BME280;5753;54.402;10.220;2023-04-06T00:21:49;102067.25;;;13.92;35.60
11395;BME280;5753;54.402;10.220;2023-04-06T00:24:15;102065.31;;;13.81;36.15
11395;BME280;5753;54.402;10.220;2023-04-06T00:26:41;102072.53;;;13.22;37.24
11395;BME280;5753;54.402;10.220;2023-04-06T00:29:08;102071.09;;;13.34;37.09
11395;BME280;5753;54.402;10.220;2023-04-06T00:31:34;102062.28;;;13.63;36.22
11395;BME280;5753;54.402;10.220;2023-04-06T00:34:00;102068.00;;;13.15;37.08
11395;BME280;5753;54.402;10.220;2023-04-06T00:36:26;102056.63;;;13.42;36.58
11395;BME280;5753;54.402;10.220;2023-04-06T00:38:52;102054.50;;;14.01;35.50
11395;BME280;5753;54.402;10.220;2023-04-06T00:41:19;102056.47;;;13.72;35.65
11395;BME280;5753;54.402;10.220;2023-04-06T00:43:46;102049.06;;;13.89;35.07
11395;BME280;5753;54.402;10.220;2023-04-06T00:46:13;102046.78;;;14.04;34.51
11395;BME280;5753;54.402;10.220;2023-04-06T00:48:39;102051.13;;;13.66;34.60
11395;BME280;5753;54.402;10.220;2023-04-06T00:51:06;102043.50;;;13.72;34.65
11395;BME280;5753;54.402;10.220;2023-04-06T00:53:32;102038.13;;;13.64;34.61
11395;BME280;5753;54.402;10.220;2023-04-06T00:55:59;102036.75;;;13.78;34.28
11395;BME280;5753;54.402;10.220;2023-04-06T00:58:25;102040.63;;;13.99;33.65
11395;BME280;5753;54.402;10.220;2023-04-06T01:00:51;102032.69;;;13.91;33.99
11395;BME280;5753;54.402;10.220;2023-04-06T01:03:18;102034.25;;;13.83;34.15
11395;BME280;5753;54.402;10.220;2023-04-06T01:05:44;102032.25;;;13.71;34.73
11395;BME280;5753;54.402;10.220;2023-04-06T01:08:11;102033.22;;;13.75;34.82
11395;BME280;5753;54.402;10.220;2023-04-06T01:10:37;102038.84;;;13.57;35.33
11395;BME280;5753;54.402;10.220;2023-04-06T01:13:03;102029.28;;;13.54;35.38
11395;BME280;5753;54.402;10.220;2023-04-06T01:15:30;102028.00;;;13.73;35.23
11395;BME280;5753;54.402;10.220;2023-04-06T01:17:58;102022.34;;;13.53;36.00
11395;BME280;5753;54.402;10.220;2023-04-06T01:20:24;102023.28;;;13.57;35.65
11395;BME280;5753;54.402;10.220;2023-04-06T01:22:50;102019.84;;;13.58;35.95
11395;BME280;5753;54.402;10.220;2023-04-06T01:25:16;102024.38;;;13.29;36.40
11395;BME280;5753;54.402;10.220;2023-04-06T01:27:43;102021.09;;;13.36;36.49
11395;BME280;5753;54.402;10.220;2023-04-06T01:30:10;102021.69;;;13.62;35.58
11395;BME280;5753;54.402;10.220;2023-04-06T01:32:36;102017.69;;;13.39;36.24
11395;BME280;5753;54.402;10.220;2023-04-06T01:35:02;102007.53;;;13.85;35.37
11395;BME280;5753;54.402;10.220;2023-04-06T01:37:29;102011.41;;;13.67;35.58
11395;BME280;5753;54.402;10.220;2023-04-06T01:39:58;102010.78;;;13.38;36.56
11395;BME280;5753;54.402;10.220;2023-04-06T01:42:24;102012.94;;;12.86;37.23
11395;BME280;5753;54.402;10.220;2023-04-06T01:44:51;102009.56;;;13.23;36.63
11395;BME280;5753;54.402;10.220;2023-04-06T01:47:18;102021.13;;;13.38;36.66
11395;BME280;5753;54.402;10.220;2023-04-06T01:49:44;102016.53;;;13.64;36.33
11395;BME280;5753;54.402;10.220;2023-04-06T01:52:10;102014.56;;;13.53;36.21
11395;BME280;5753;54.402;10.220;2023-04-06T01:54:37;102030.88;;;13.15;37.22
11395;BME280;5753;54.402;10.220;2023-04-06T01:57:03;102014.06;;;13.31;36.68
11395;BME280;5753;54.402;10.220;2023-04-06T01:59:29;102018.47;;;13.35;36.69
11395;BME280;5753;54.402;10.220;2023-04-06T02:01:55;102025.94;;;12.56;38.22
11395;BME280;5753;54.402;10.220;2023-04-06T02:04:21;102024.41;;;12.02;39.55
11395;BME280;5753;54.402;10.220;2023-04-06T02:06:48;102026.59;;;12.18;38.76
11395;BME280;5753;54.402;10.220;2023-04-06T02:09:14;102017.94;;;12.79;37.67
11395;BME280;5753;54.402;10.220;2023-04-06T02:11:41;102025.31;;;12.98;36.95
11395;BME280;5753;54.402;10.220;2023-04-06T02:14:07;102018.13;;;12.86;37.35
11395;BME280;5753;54.402;10.220;2023-04-06T02:16:34;102020.38;;;12.41;38.17
11395;BME280;5753;54.402;10.220;2023-04-06T02:19:00;102025.19;;;12.60;37.95
11395;BME280;5753;54.402;10.220;2023-04-06T02:21:26;102018.94;;;12.52;38.22
11395;BME280;5753;54.402;10.220;2023-04-06T02:23:52;102019.59;;;12.14;39.01
11395;BME280;5753;54.402;10.220;2023-04-06T02:26:18;102025.50;;;12.40;38.32
11395;BME280;5753;54.402;10.220;2023-04-06T02:28:44;102013.03;;;12.26;38.52
11395;BME280;5753;54.402;10.220;2023-04-06T02:31:11;102019.63;;;12.45;38.50
11395;BME280;5753;54.402;10.220;2023-04-06T02:33:37;102013.16;;;12.63;38.43
11395;BME280;5753;54.402;10.220;2023-04-06T02:36:04;102012.97;;;12.55;38.29
11395;BME280;5753;54.402;10.220;2023-04-06T02:38:30;102018.16;;;12.55;38.91
11395;BME280;5753;54.402;10.220;2023-04-06T02:40:56;102010.81;;;12.72;38.26
11395;BME280;5753;54.402;10.220;2023-04-06T02:43:22;102007.75;;;12.53;38.55
11395;BME280;5753;54.402;10.220;2023-04-06T02:45:48;102008.59;;;12.85;38.03
11395;BME280;5753;54.402;10.220;2023-04-06T02:48:15;102001.69;;;12.84;37.77
11395;BME280;5753;54.402;10.220;2023-04-06T02:50:41;102002.97;;;12.69;38.43
11395;BME280;5753;54.402;10.220;2023-04-06T02:53:07;102002.28;;;12.76;38.02
11395;BME280;5753;54.402;10.220;2023-04-06T02:55:33;101998.56;;;12.98;37.64
11395;BME280;5753;54.402;10.220;2023-04-06T02:58:00;102004.81;;;12.73;37.95
11395;BME280;5753;54.402;10.220;2023-04-06T03:00:26;101997.09;;;11.81;39.64
11395;BME280;5753;54.402;10.220;2023-04-06T03:02:52;102003.59;;;12.58;38.56
11395;BME280;5753;54.402;10.220;2023-04-06T03:05:18;102001.66;;;12.20;39.08
11395;BME280;5753;54.402;10.220;2023-04-06T03:07:44;102009.25;;;12.14;39.27
11395;BME280;5753;54.402;10.220;2023-04-06T03:10:11;102007.34;;;11.78;39.68
11395;BME280;5753;54.402;10.220;2023-04-06T03:12:38;102001.91;;;11.71;40.27
11395;BME280;5753;54.402;10.220;2023-04-06T03:15:04;102010.34;;;12.22;38.95
11395;BME280;5753;54.402;10.220;2023-04-06T03:17:31;102001.72;;;12.53;38.70
11395;BME280;5753;54.402;10.220;2023-04-06T03:19:57;102005.66;;;12.72;38.23
11395;BME280;5753;54.402;10.220;2023-04-06T03:22:23;102001.47;;;12.77;38.16
11395;BME280;5753;54.402;10.220;2023-04-06T03:24:49;102008.06;;;12.66;38.25
11395;BME280;5753;54.402;10.220;2023-04-06T03:27:16;102005.59;;;12.37;38.87
11395;BME280;5753;54.402;10.220;2023-04-06T03:29:42;102014.66;;;12.53;38.76
11395;BME280;5753;54.402;10.220;2023-04-06T03:32:08;102003.84;;;12.36;38.81
11395;BME280;5753;54.402;10.220;2023-04-06T03:34:36;102011.38;;;12.28;39.24
11395;BME280;5753;54.402;10.220;2023-04-06T03:37:02;102003.16;;;12.42;38.77
11395;BME280;5753;54.402;10.220;2023-04-06T03:39:28;102010.44;;;11.95;39.98
11395;BME280;5753;54.402;10.220;2023-04-06T03:41:54;102015.94;;;12.37;39.34
11395;BME280;5753;54.402;10.220;2023-04-06T03:44:20;102009.03;;;11.49;41.08
11395;BME280;5753;54.402;10.220;2023-04-06T03:46:47;102017.28;;;11.66;40.99
11395;BME280;5753;54.402;10.220;2023-04-06T03:49:13;102021.19;;;12.40;39.75
11395;BME280;5753;54.402;10.220;2023-04-06T03:51:39;102016.41;;;12.24;39.51
11395;BME280;5753;54.402;10.220;2023-04-06T03:54:05;102014.53;;;12.18;39.84
11395;BME280;5753;54.402;10.220;2023-04-06T03:56:31;102009.66;;;11.97;40.11
11395;BME280;5753;54.402;10.220;2023-04-06T03:58:58;102003.53;;;11.67;40.99
11395;BME280;5753;54.402;10.220;2023-04-06T04:01:24;102016.41;;;11.92;40.50
11395;BME280;5753;54.402;10.220;2023-04-06T04:03:54;102020.38;;;12.41;39.73
11395;BME280;5753;54.402;10.220;2023-04-06T04:06:20;102008.22;;;11.79;40.54
11395;BME280;5753;54.402;10.220;2023-04-06T04:08:47;102018.94;;;11.64;41.15
11395;BME280;5753;54.402;10.220;2023-04-06T04:11:13;102020.44;;;12.44;39.40
11395;BME280;5753;54.402;10.220;2023-04-06T04:13:39;102013.78;;;12.52;39.27
11395;BME280;5753;54.402;10.220;2023-04-06T04:16:05;102020.50;;;12.16;40.00
11395;BME280;5753;54.402;10.220;2023-04-06T04:18:31;102017.66;;;11.50;40.77
11395;BME280;5753;54.402;10.220;2023-04-06T04:20:58;102018.41;;;12.03;39.78
11395;BME280;5753;54.402;10.220;2023-04-06T04:23:24;102024.09;;;11.64;40.80
11395;BME280;5753;54.402;10.220;2023-04-06T04:25:50;102025.94;;;11.95;40.07
11395;BME280;5753;54.402;10.220;2023-04-06T04:28:17;102026.97;;;11.73;40.62
11395;BME280;5753;54.402;10.220;2023-04-06T04:30:43;102023.75;;;12.09;39.86
11395;BME280;5753;54.402;10.220;2023-04-06T04:33:09;102019.13;;;11.97;39.93
11395;BME280;5753;54.402;10.220;2023-04-06T04:35:35;102017.63;;;12.35;39.53
11395;BME280;5753;54.402;10.220;2023-04-06T04:38:01;102020.50;;;12.16;39.60
11395;BME280;5753;54.402;10.220;2023-04-06T04:40:28;102025.94;;;12.25;39.36
11395;BME280;5753;54.402;10.220;2023-04-06T04:42:54;102020.72;;;12.23;39.62
11395;BME280;5753;54.402;10.220;2023-04-06T04:45:20;102019.25;;;12.32;39.58
11395;BME280;5753;54.402;10.220;2023-04-06T04:47:46;102024.59;;;11.79;40.74
11395;BME280;5753;54.402;10.220;2023-04-06T04:50:12;102019.94;;;11.96;40.39
11395;BME280;5753;54.402;10.220;2023-04-06T04:52:38;102022.28;;;12.48;39.05
11395;BME280;5753;54.402;10.220;2023-04-06T04:55:05;102009.50;;;12.23;39.77
11395;BME280;5753;54.402;10.220;2023-04-06T04:57:31;102019.41;;;11.51;41.02
11395;BME280;5753;54.402;10.220;2023-04-06T04:59:58;102020.41;;;11.56;41.25
11395;BME280;5753;54.402;10.220;2023-04-06T05:02:24;102017.63;;;12.05;40.37
11395;BME280;5753;54.402;10.220;2023-04-06T05:04:50;102018.78;;;12.16;39.91
11395;BME280;5753;54.402;10.220;2023-04-06T05:07:16;102019.03;;;12.55;39.52
11395;BME280;5753;54.402;10.220;2023-04-06T05:09:44;102012.41;;;12.67;39.09
11395;BME280;5753;54.402;10.220;2023-04-06T05:12:10;102024.00;;;12.18;39.84
11395;BME280;5753;54.402;10.220;2023-04-06T05:14:37;102025.94;;;12.25;39.70
11395;BME280;5753;54.402;10.220;2023-04-06T05:17:03;102027.44;;;12.17;40.17
11395;BME280;5753;54.402;10.220;2023-04-06T05:19:30;102019.50;;;12.41;39.61
11395;BME280;5753;54.402;10.220;2023-04-06T05:21:56;102022.06;;;12.74;39.16
11395;BME280;5753;54.402;10.220;2023-04-06T05:24:22;102025.53;;;12.41;39.79
11395;BME280;5753;54.402;10.220;2023-04-06T05:26:49;102028.53;;;12.56;39.51
11395;BME280;5753;54.402;10.220;2023-04-06T05:29:16;102028.34;;;12.49;39.22
11395;BME280;5753;54.402;10.220;2023-04-06T05:31:42;102024.09;;;13.18;38.19
11395;BME280;5753;54.402;10.220;2023-04-06T05:34:09;102020.75;;;13.22;37.71
11395;BME280;5753;54.402;10.220;2023-04-06T05:36:35;102021.16;;;13.39;37.82
11395;BME280;5753;54.402;10.220;2023-04-06T05:39:01;102015.75;;;13.29;38.00
11395;BME280;5753;54.402;10.220;2023-04-06T05:41:28;102014.25;;;13.77;37.25
11395;BME280;5753;54.402;10.220;2023-04-06T05:43:54;102018.25;;;14.04;36.82
11395;BME280;5753;54.402;10.220;2023-04-06T05:46:20;102012.97;;;14.41;36.16
11395;BME280;5753;54.402;10.220;2023-04-06T05:48:46;102017.25;;;13.97;36.53
11395;BME280;5753;54.402;10.220;2023-04-06T05:51:13;102012.56;;;14.20;36.34
11395;BME280;5753;54.402;10.220;2023-04-06T05:53:39;102020.97;;;14.10;35.94
11395;BME280;5753;54.402;10.220;2023-04-06T05:56:05;102016.31;;;13.94;36.32
11395;BME280;5753;54.402;10.220;2023-04-06T05:58:32;102019.94;;;14.02;36.44
11395;BME280;5753;54.402;10.220;2023-04-06T06:00:59;102023.94;;;13.86;36.64
11395;BME280;5753;54.402;10.220;2023-04-06T06:03:26;102027.25;;;14.20;35.97
11395;BME280;5753;54.402;10.220;2023-04-06T06:05:52;102024.16;;;14.39;35.70
11395;BME280;5753;54.402;10.220;2023-04-06T06:08:18;102022.22;;;14.71;34.94
11395;BME280;5753;54.402;10.220;2023-04-06T06:10:45;102023.78;;;14.64;35.34
11395;BME280;5753;54.402;10.220;2023-04-06T06:13:11;102024.03;;;15.29;34.55
11395;BME280;5753;54.402;10.220;2023-04-06T06:15:37;102027.53;;;14.78;34.93
11395;BME280;5753;54.402;10.220;2023-04-06T06:18:03;102032.47;;;15.15;34.60
11395;BME280;5753;54.402;10.220;2023-04-06T06:20:30;102022.84;;;14.61;35.24
11395;BME280;5753;54.402;10.220;2023-04-06T06:22:56;102021.34;;;14.72;35.32
11395;BME280;5753;54.402;10.220;2023-04-06T06:25:22;102014.09;;;14.54;35.11
11395;BME280;5753;54.402;10.220;2023-04-06T06:27:48;102026.97;;;13.67;36.55
11395;BME280;5753;54.402;10.220;2023-04-06T06:30:14;102022.63;;;14.48;35.87
11395;BME280;5753;54.402;10.220;2023-04-06T06:32:41;102030.13;;;15.30;34.64
11395;BME280;5753;54.402;10.220;2023-04-06T06:35:07;102030.19;;;15.36;34.62
11395;BME280;5753;54.402;10.220;2023-04-06T06:37:33;102035.31;;;14.78;35.46
11395;BME280;5753;54.402;10.220;2023-04-06T06:40:00;102032.56;;;15.21;35.25
11395;BME280;5753;54.402;10.220;2023-04-06T06:42:26;102033.97;;;16.18;34.11
11395;BME280;5753;54.402;10.220;2023-04-06T06:44:52;102024.88;;;16.57;33.13
11395;BME280;5753;54.402;10.220;2023-04-06T06:47:19;102028.78;;;16.18;33.72
11395;BME280;5753;54.402;10.220;2023-04-06T06:49:45;102026.38;;;16.36;33.11
11395;BME280;5753;54.402;10.220;2023-04-06T06:52:11;102030.19;;;15.95;33.95
11395;BME280;5753;54.402;10.220;2023-04-06T06:54:37;102036.72;;;15.62;34.37
11395;BME280;5753;54.402;10.220;2023-04-06T06:57:03;102026.38;;;15.67;33.73
11395;BME280;5753;54.402;10.220;2023-04-06T06:59:29;102031.78;;;15.84;33.53
11395;BME280;5753;54.402;10.220;2023-04-06T07:01:56;102029.31;;;15.93;33.76
11395;BME280;5753;54.402;10.220;2023-04-06T07:04:22;102032.31;;;15.60;34.53
11395;BME280;5753;54.402;10.220;2023-04-06T07:06:48;102035.25;;;16.55;33.07
11395;BME280;5753;54.402;10.220;2023-04-06T07:09:14;102025.53;;;15.69;33.99
11395;BME280;5753;54.402;10.220;2023-04-06T07:11:40;102025.41;;;16.28;33.51
11395;BME280;5753;54.402;10.220;2023-04-06T07:14:07;102032.16;;;16.11;33.15
11395;BME280;5753;54.402;10.220;2023-04-06T07:16:33;102026.81;;;15.40;34.33
11395;BME280;5753;54.402;10.220;2023-04-06T07:18:59;102028.16;;;16.42;32.85
11395;BME280;5753;54.402;10.220;2023-04-06T07:21:25;102025.78;;;16.62;32.66
11395;BME280;5753;54.402;10.220;2023-04-06T07:23:52;102035.25;;;16.55;32.81
11395;BME280;5753;54.402;10.220;2023-04-06T07:26:18;102031.31;;;16.92;32.13
11395;BME280;5753;54.402;10.220;2023-04-06T07:28:44;102025.97;;;16.79;31.32
11395;BME280;5753;54.402;10.220;2023-04-06T07:31:11;102027.66;;;16.72;31.65
11395;BME280;5753;54.402;10.220;2023-04-06T07:33:37;102034.28;;;16.46;31.92
11395;BME280;5753;54.402;10.220;2023-04-06T07:36:03;102026.88;;;16.06;33.41
11395;BME280;5753;54.402;10.220;2023-04-06T07:38:30;102032.16;;;16.93;31.68
11395;BME280;5753;54.402;10.220;2023-04-06T07:40:56;102023.81;;;17.34;31.47
11395;BME280;5753;54.402;10.220;2023-04-06T07:43:22;102026.78;;;16.70;31.71
11395;BME280;5753;54.402;10.220;2023-04-06T07:45:48;102018.66;;;17.43;31.40
11395;BME280;5753;54.402;10.220;2023-04-06T07:48:14;102025.69;;;16.54;32.28
11395;BME280;5753;54.402;10.220;2023-04-06T07:50:41;102018.31;;;16.97;31.29
11395;BME280;5753;54.402;10.220;2023-04-06T07:53:08;102019.56;;;17.46;30.27
11395;BME280;5753;54.402;10.220;2023-04-06T07:55:34;102024.59;;;17.20;31.22
11395;BME280;5753;54.402;10.220;2023-04-06T07:58:00;102034.94;;;16.26;31.67
11395;BME280;5753;54.402;10.220;2023-04-06T08:00:27;102022.88;;;16.33;31.81
11395;BME280;5753;54.402;10.220;2023-04-06T08:02:53;102030.13;;;16.61;31.70
11395;BME280;5753;54.402;10.220;2023-04-06T08:05:19;102020.34;;;17.31;30.68
11395;BME280;5753;54.402;10.220;2023-04-06T08:07:45;102019.78;;;16.66;31.59
11395;BME280;5753;54.402;10.220;2023-04-06T08:10:11;102020.00;;;18.33;29.60
11395;BME280;5753;54.402;10.220;2023-04-06T08:12:38;102012.97;;;18.06;29.77
11395;BME280;5753;54.402;10.220;2023-04-06T08:15:05;102019.66;;;17.58;31.18
11395;BME280;5753;54.402;10.220;2023-04-06T08:17:35;102023.31;;;17.94;30.08
11395;BME280;5753;54.402;10.220;2023-04-06T08:20:01;102011.16;;;17.93;29.79
11395;BME280;5753;54.402;10.220;2023-04-06T08:22:29;102013.81;;;18.01;29.82
11395;BME280;5753;54.402;10.220;2023-04-06T08:24:55;102012.22;;;18.47;29.32
11395;BME280;5753;54.402;10.220;2023-04-06T08:27:21;102013.03;;;18.31;29.33
11395;BME280;5753;54.402;10.220;2023-04-06T08:29:49;102014.13;;;17.13;30.39
11395;BME280;5753;54.402;10.220;2023-04-06T08:32:15;102011.44;;;18.97;28.92
11395;BME280;5753;54.402;10.220;2023-04-06T08:34:41;102013.91;;;18.34;29.11
11395;BME280;5753;54.402;10.220;2023-04-06T08:37:07;102010.28;;;16.71;30.85
11395;BME280;5753;54.402;10.220;2023-04-06T08:39:33;102019.28;;;17.05;30.48
11395;BME280;5753;54.402;10.220;2023-04-06T08:42:01;102018.66;;;17.43;30.49
11395;BME280;5753;54.402;10.220;2023-04-06T08:44:29;102012.56;;;17.39;30.22
11395;BME280;5753;54.402;10.220;2023-04-06T08:46:59;102009.19;;;17.52;29.68
11395;BME280;5753;54.402;10.220;2023-04-06T08:49:26;102010.34;;;18.03;29.22
11395;BME280;5753;54.402;10.220;2023-04-06T08:51:52;102022.50;;;18.00;29.71
11395;BME280;5753;54.402;10.220;2023-04-06T08:54:18;102018.75;;;17.55;30.16
11395;BME280;5753;54.402;10.220;2023-04-06T08:56:45;102019.25;;;18.86;28.95
11395;BME280;5753;54.402;10.220;2023-04-06T08:59:12;102015.78;;;19.21;28.78
11395;BME280;5753;54.402;10.220;2023-04-06T09:01:40;102009.53;;;18.19;29.32
11395;BME280;5753;54.402;10.220;2023-04-06T09:04:08;102009.34;;;17.77;29.38
11395;BME280;5753;54.402;10.220;2023-04-06T09:06:37;102004.28;;;18.13;28.51
11395;BME280;5753;54.402;10.220;2023-04-06T09:09:03;102007.03;;;16.98;30.28
11395;BME280;5753;54.402;10.220;2023-04-06T09:11:40;102014.34;;;17.46;29.33
11395;BME280;5753;54.402;10.220;2023-04-06T09:14:06;102002.41;;;17.79;28.11
11395;BME280;5753;54.402;10.220;2023-04-06T09:16:39;102007.94;;;18.72;26.85
11395;BME280;5753;54.402;10.220;2023-04-06T09:19:08;102005.22;;;19.74;26.47
11395;BME280;5753;54.402;10.220;2023-04-06T09:21:34;101998.34;;;19.18;28.16
11395;BME280;5753;54.402;10.220;2023-04-06T09:24:02;102001.78;;;18.58;28.71
11395;BME280;5753;54.402;10.220;2023-04-06T09:26:29;101995.59;;;19.91;26.88
11395;BME280;5753;54.402;10.220;2023-04-06T09:28:57;101993.81;;;19.96;26.32
11395;BME280;5753;54.402;10.220;2023-04-06T09:31:25;101993.97;;;19.44;25.87
11395;BME280;5753;54.402;10.220;2023-04-06T09:33:52;101993.63;;;20.42;25.90
11395;BME280;5753;54.402;10.220;2023-04-06T09:36:19;101994.88;;;19.17;25.91
11395;BME280;5753;54.402;10.220;2023-04-06T09:39:02;101994.88;;;19.07;26.46
11395;BME280;5753;54.402;10.220;2023-04-06T09:41:33;101986.91;;;18.12;27.05
11395;BME280;5753;54.402;10.220;2023-04-06T09:44:06;101984.41;;;19.14;26.33
11395;BME280;5753;54.402;10.220;2023-04-06T09:49:04;101984.06;;;20.23;25.06
11395;BME280;5753;54.402;10.220;2023-04-06T09:51:35;101985.13;;;19.85;26.60
11395;BME280;5753;54.402;10.220;2023-04-06T09:54:02;101985.22;;;19.67;25.50
11395;BME280;5753;54.402;10.220;2023-04-06T09:56:47;101973.13;;;20.96;22.79
11395;BME280;5753;54.402;10.220;2023-04-06T10:04:57;101967.69;;;21.14;21.77
11395;BME280;5753;54.402;10.220;2023-04-06T10:07:26;101970.09;;;21.39;20.42
11395;BME280;5753;54.402;10.220;2023-04-06T10:09:54;101978.34;;;19.02;23.14
11395;BME280;5753;54.402;10.220;2023-04-06T10:12:21;101973.03;;;19.37;22.96
11395;BME280;5753;54.402;10.220;2023-04-06T10:14:47;101968.75;;;19.01;22.36
11395;BME280;5753;54.402;10.220;2023-04-06T10:17:15;101970.50;;;18.74;23.22
11395;BME280;5753;54.402;10.220;2023-04-06T10:19:46;101967.78;;;19.66;22.31
11395;BME280;5753;54.402;10.220;2023-04-06T10:22:24;101974.78;;;18.42;23.03
11395;BME280;5753;54.402;10.220;2023-04-06T10:24:52;101976.59;;;18.88;22.80
11395;BME280;5753;54.402;10.220;2023-04-06T10:27:28;101973.41;;;20.61;20.72
11395;BME280;5753;54.402;10.220;2023-04-06T10:30:01;101975.56;;;19.76;22.23
11395;BME280;5753;54.402;10.220;2023-04-06T10:32:37;101971.00;;;20.18;21.42
11395;BME280;5753;54.402;10.220;2023-04-06T10:35:11;101963.59;;;20.86;21.02
11395;BME280;5753;54.402;10.220;2023-04-06T10:38:05;101971.16;;;19.92;21.59
11395;BME280;5753;54.402;10.220;2023-04-06T10:40:31;101969.41;;;19.97;21.46
11395;BME280;5753;54.402;10.220;2023-04-06T10:43:11;101958.44;;;20.73;20.27
11395;BME280;5753;54.402;10.220;2023-04-06T10:45:39;101952.69;;;21.31;20.71
11395;BME280;5753;54.402;10.220;2023-04-06T10:48:19;101969.06;;;20.57;20.84
11395;BME280;5753;54.402;10.220;2023-04-06T10:50:48;101958.09;;;21.13;20.82
11395;BME280;5753;54.402;10.220;2023-04-06T10:53:27;101957.97;;;21.25;20.77
11395;BME280;5753;54.402;10.220;2023-04-06T10:55:55;101954.25;;;21.48;20.93
11395;BME280;5753;54.402;10.220;2023-04-06T10:58:25;101946.47;;;22.11;21.20
11395;BME280;5753;54.402;10.220;2023-04-06T11:00:52;101952.00;;;21.89;21.21
11395;BME280;5753;54.402;10.220;2023-04-06T11:03:19;101951.41;;;20.79;21.58
11395;BME280;5753;54.402;10.220;2023-04-06T11:05:47;101941.44;;;21.16;20.58
11395;BME280;5753;54.402;10.220;2023-04-06T11:08:27;101939.16;;;20.81;21.21
11395;BME280;5753;54.402;10.220;2023-04-06T11:11:05;101950.53;;;22.33;20.82
11395;BME280;5753;54.402;10.220;2023-04-06T11:14:01;101942.25;;;21.99;20.73
11395;BME280;5753;54.402;10.220;2023-04-06T11:16:31;101941.72;;;22.37;20.33
11395;BME280;5753;54.402;10.220;2023-04-06T11:18:59;101938.47;;;22.77;20.38
11395;BME280;5753;54.402;10.220;2023-04-06T11:24:23;101936.13;;;21.25;21.40
11395;BME280;5753;54.402;10.220;2023-04-06T11:29:21;101932.22;;;22.30;20.29
11395;BME280;5753;54.402;10.220;2023-04-06T11:31:50;101935.75;;;21.58;20.32
11395;BME280;5753;54.402;10.220;2023-04-06T11:34:21;101935.00;;;22.18;20.64
11395;BME280;5753;54.402;10.220;2023-04-06T11:36:53;101920.50;;;20.05;20.85
11395;BME280;5753;54.402;10.220;2023-04-06T11:39:23;101923.25;;;21.80;20.38
11395;BME280;5753;54.402;10.220;2023-04-06T11:41:54;101924.84;;;21.92;20.61
11395;BME280;5753;54.402;10.220;2023-04-06T11:47:00;101924.50;;;22.16;19.53
11395;BME280;5753;54.402;10.220;2023-04-06T11:49:28;101933.47;;;22.00;19.40
11395;BME280;5753;54.402;10.220;2023-04-06T11:51:58;101924.53;;;23.67;18.44
11395;BME280;5753;54.402;10.220;2023-04-06T11:54:37;101917.97;;;21.05;20.07
11395;BME280;5753;54.402;10.220;2023-04-06T11:57:04;101922.78;;;22.15;19.41
11395;BME280;5753;54.402;10.220;2023-04-06T11:59:32;101929.59;;;22.84;19.06
11395;BME280;5753;54.402;10.220;2023-04-06T12:01:58;101916.91;;;21.96;19.27
11395;BME280;5753;54.402;10.220;2023-04-06T12:04:25;101922.53;;;21.66;20.44
11395;BME280;5753;54.402;10.220;2023-04-06T12:06:51;101923.38;;;20.90;19.47
11395;BME280;5753;54.402;10.220;2023-04-06T12:09:18;101922.50;;;22.89;18.65
11395;BME280;5753;54.402;10.220;2023-04-06T12:11:44;101923.53;;;22.79;18.26
11395;BME280;5753;54.402;10.220;2023-04-06T12:14:11;101920.47;;;23.03;17.74
11395;BME280;5753;54.402;10.220;2023-04-06T12:16:39;101909.81;;;22.05;18.19
11395;BME280;5753;54.402;10.220;2023-04-06T12:19:06;101912.97;;;22.83;18.10
11395;BME280;5753;54.402;10.220;2023-04-06T12:21:34;101927.41;;;20.12;19.85
11395;BME280;5753;54.402;10.220;2023-04-06T12:24:03;101924.44;;;23.70;16.96
11395;BME280;5753;54.402;10.220;2023-04-06T12:26:30;101919.28;;;23.21;17.38
11395;BME280;5753;54.402;10.220;2023-04-06T12:28:58;101912.63;;;24.64;15.90
11395;BME280;5753;54.402;10.220;2023-04-06T12:31:30;101909.91;;;23.49;17.64
11395;BME280;5753;54.402;10.220;2023-04-06T12:33:56;101914.84;;;24.45;16.79
11395;BME280;5753;54.402;10.220;2023-04-06T12:36:23;101907.41;;;24.62;16.16
11395;BME280;5753;54.402;10.220;2023-04-06T12:38:50;101908.84;;;25.39;15.86
11395;BME280;5753;54.402;10.220;2023-04-06T12:41:17;101901.97;;;26.48;15.45
11395;BME280;5753;54.402;10.220;2023-04-06T12:43:44;101887.66;;;27.77;14.45
11395;BME280;5753;54.402;10.220;2023-04-06T12:46:11;101894.34;;;28.31;14.11
11395;BME280;5753;54.402;10.220;2023-04-06T12:48:37;101902.00;;;28.38;14.28
11395;BME280;5753;54.402;10.220;2023-04-06T12:51:05;101899.97;;;26.28;14.72
11395;BME280;5753;54.402;10.220;2023-04-06T12:53:33;101892.59;;;29.33;13.30
11395;BME280;5753;54.402;10.220;2023-04-06T12:56:00;101894.94;;;28.59;13.93
11395;BME280;5753;54.402;10.220;2023-04-06T12:58:27;101887.78;;;29.02;13.14
11395;BME280;5753;54.402;10.220;2023-04-06T13:00:54;101888.81;;;28.77;13.07
11395;BME280;5753;54.402;10.220;2023-04-06T13:03:21;101891.19;;;29.82;12.79
11395;BME280;5753;54.402;10.220;2023-04-06T13:05:49;101890.47;;;31.36;11.87
11395;BME280;5753;54.402;10.220;2023-04-06T13:08:17;101876.66;;;29.70;12.78